Time;durP1;ratioP1;P1;durP2;ratioP2;P2;SDS_P1;SDS_P2;PMS_P1;PMS_P2;Temp;Humidity;BMP_temperature;BMP_pressure;BME280_temperature;BME280_humidity;BME280_pressure;Samples;Min_cycle;Max_cycle;Signal;HPM_P1;HPM_P2
2021/06/30 00:01:58;;;;;;;2.30;2.20;;;16.00;99.90;;;;;;5032773;28;20690;-64
2021/06/30 00:04:24;;;;;;;2.07;1.93;;;16.10;99.90;;;;;;5032406;28;20708;-65
2021/06/30 00:06:50;;;;;;;2.07;1.97;;;16.10;99.90;;;;;;5033118;28;20197;-67
2021/06/30 00:09:16;;;;;;;1.97;1.87;;;16.00;99.90;;;;;;5032641;28;20915;-67
2021/06/30 00:11:42;;;;;;;1.63;1.53;;;16.10;99.90;;;;;;5015408;28;20236;-66
2021/06/30 00:14:09;;;;;;;2.33;2.13;;;16.10;99.90;;;;;;5033118;28;20892;-66
2021/06/30 00:16:35;;;;;;;2.43;2.33;;;16.10;99.90;;;;;;5032711;28;20427;-66
2021/06/30 00:19:04;;;;;;;2.10;2.00;;;16.10;99.90;;;;;;5032184;28;20490;-66
2021/06/30 00:21:30;;;;;;;6.80;1.93;;;16.00;99.90;;;;;;5032546;28;20464;-65
2021/06/30 00:23:55;;;;;;;2.03;1.93;;;16.00;99.90;;;;;;5032826;28;20876;-66
2021/06/30 00:26:21;;;;;;;2.47;2.27;;;16.10;99.90;;;;;;5032470;28;20177;-66
2021/06/30 00:28:47;;;;;;;1.90;1.80;;;16.10;99.90;;;;;;5032237;28;20653;-65
2021/06/30 00:31:12;;;;;;;1.80;1.70;;;16.10;99.90;;;;;;5032469;28;20294;-64
2021/06/30 00:33:38;;;;;;;1.87;1.70;;;16.10;99.90;;;;;;5032972;28;20170;-66
2021/06/30 00:36:04;;;;;;;1.77;1.67;;;16.10;99.90;;;;;;5032599;28;20178;-64
2021/06/30 00:38:30;;;;;;;2.40;2.20;;;16.10;99.90;;;;;;5032439;28;20176;-65
2021/06/30 00:40:55;;;;;;;1.70;1.60;;;16.10;99.90;;;;;;5035254;28;20830;-64
2021/06/30 00:43:21;;;;;;;1.70;1.60;;;16.20;99.90;;;;;;5036460;28;20201;-66
2021/06/30 00:45:50;;;;;;;1.80;1.70;;;16.20;99.90;;;;;;5036263;28;20174;-65
2021/06/30 00:48:16;;;;;;;2.10;2.00;;;16.20;99.90;;;;;;5036204;28;20178;-66
2021/06/30 00:50:44;;;;;;;2.43;1.93;;;16.20;99.90;;;;;;5036133;28;20452;-65
2021/06/30 00:53:09;;;;;;;1.83;1.73;;;16.20;99.90;;;;;;5036250;28;20178;-66
2021/06/30 00:55:35;;;;;;;1.90;1.70;;;16.30;99.90;;;;;;5026319;28;20442;-64
2021/06/30 00:58:01;;;;;;;1.90;1.63;;;16.30;99.90;;;;;;5035986;28;20181;-65
2021/06/30 01:00:27;;;;;;;4.00;2.40;;;16.40;99.90;;;;;;5035932;28;20536;-65
2021/06/30 01:02:53;;;;;;;2.50;2.10;;;16.40;99.90;;;;;;5036291;28;20484;-66
2021/06/30 01:05:18;;;;;;;1.53;1.43;;;16.50;99.90;;;;;;5035915;28;20201;-65
2021/06/30 01:07:44;;;;;;;1.70;1.60;;;16.50;99.90;;;;;;5036205;28;20182;-62
2021/06/30 01:10:10;;;;;;;1.50;1.40;;;16.50;99.90;;;;;;5035447;28;20222;-65
2021/06/30 01:12:36;;;;;;;1.70;1.60;;;16.50;99.90;;;;;;5018208;28;20438;-64
2021/06/30 01:15:11;;;;;;;1.80;1.70;;;16.50;99.90;;;;;;5018197;28;20425;-64
2021/06/30 01:17:37;;;;;;;1.00;1.00;;;16.50;99.90;;;;;;5035578;28;20511;-64
2021/06/30 01:20:06;;;;;;;1.80;1.47;;;16.50;99.90;;;;;;5035418;28;20539;-62
2021/06/30 01:22:31;;;;;;;1.40;1.30;;;16.40;99.90;;;;;;5035669;28;20460;-64
2021/06/30 01:24:57;;;;;;;1.30;1.30;;;16.40;99.90;;;;;;5034999;28;21015;-65
2021/06/30 01:27:29;;;;;;;1.10;1.10;;;16.40;99.90;;;;;;5035164;28;20201;-64
2021/06/30 01:29:55;;;;;;;1.40;1.30;;;16.40;99.90;;;;;;5035314;28;20695;-66
2021/06/30 01:32:21;;;;;;;1.10;1.10;;;16.40;99.90;;;;;;5035408;28;20467;-65
2021/06/30 01:34:47;;;;;;;3.17;1.30;;;16.40;99.90;;;;;;5035611;28;20490;-66
2021/06/30 01:37:13;;;;;;;1.50;1.10;;;16.40;99.90;;;;;;5035062;28;20544;-66
2021/06/30 01:39:39;;;;;;;1.90;1.57;;;16.40;99.90;;;;;;5035305;28;20453;-65
2021/06/30 01:42:04;;;;;;;1.07;1.07;;;16.30;99.90;;;;;;5035463;28;20990;-65
2021/06/30 01:44:30;;;;;;;0.97;0.93;;;16.40;99.90;;;;;;5035062;28;20674;-66
2021/06/30 01:46:56;;;;;;;1.63;1.53;;;16.30;99.90;;;;;;5017471;28;20185;-65
2021/06/30 01:49:22;;;;;;;1.10;1.10;;;16.30;99.90;;;;;;5034544;28;20195;-64
2021/06/30 01:51:48;;;;;;;1.30;1.30;;;16.30;99.90;;;;;;5034974;28;20209;-64
2021/06/30 01:54:15;;;;;;;1.40;1.30;;;16.30;99.90;;;;;;5035468;28;20401;-64
2021/06/30 01:56:42;;;;;;;0.90;0.90;;;16.30;99.90;;;;;;5018296;28;20445;-64
2021/06/30 01:59:13;;;;;;;1.10;1.10;;;16.30;99.90;;;;;;5034950;28;20428;-64
2021/06/30 02:01:40;;;;;;;0.80;0.80;;;16.20;99.90;;;;;;5034728;28;20447;-63
2021/06/30 02:04:07;;;;;;;1.20;1.10;;;16.20;99.90;;;;;;5035214;28;20435;-65
2021/06/30 02:06:38;;;;;;;1.10;1.10;;;16.20;99.90;;;;;;5034636;28;20417;-64
2021/06/30 02:09:07;;;;;;;1.20;1.20;;;16.20;99.90;;;;;;5034546;28;20792;-65
2021/06/30 02:11:32;;;;;;;0.80;0.80;;;16.20;99.90;;;;;;5034799;28;20447;-66
2021/06/30 02:13:59;;;;;;;1.17;0.83;;;16.10;99.90;;;;;;5035007;28;20771;-65
2021/06/30 02:16:25;;;;;;;1.20;1.20;;;16.00;99.90;;;;;;5034683;28;20387;-65
2021/06/30 02:18:52;;;;;;;0.80;0.80;;;16.00;99.90;;;;;;5034115;28;20471;-66
2021/06/30 02:21:18;;;;;;;0.90;0.90;;;16.00;99.90;;;;;;5034745;28;20431;-65
2021/06/30 02:23:43;;;;;;;1.37;0.77;;;15.90;99.90;;;;;;5034375;28;20406;-65
2021/06/30 02:26:09;;;;;;;0.70;0.70;;;15.80;99.90;;;;;;5033912;28;20178;-66
2021/06/30 02:28:35;;;;;;;0.80;0.80;;;15.80;99.90;;;;;;5034194;28;20296;-65
2021/06/30 02:31:01;;;;;;;1.07;0.73;;;15.70;99.90;;;;;;5034458;28;20525;-66
2021/06/30 02:33:27;;;;;;;0.87;0.87;;;15.70;99.90;;;;;;5034237;28;20297;-67
2021/06/30 02:35:53;;;;;;;0.90;0.90;;;15.60;99.90;;;;;;5034371;28;20482;-66
2021/06/30 02:38:19;;;;;;;0.60;0.57;;;15.50;99.90;;;;;;5033814;28;20432;-65
2021/06/30 02:40:44;;;;;;;2.20;0.90;;;15.50;99.90;;;;;;5033894;28;20435;-65
2021/06/30 02:43:10;;;;;;;0.73;0.73;;;15.40;99.90;;;;;;5034393;28;20459;-66
2021/06/30 02:45:36;;;;;;;0.77;0.77;;;15.40;99.90;;;;;;5034283;28;20324;-65
2021/06/30 02:48:02;;;;;;;0.67;0.67;;;15.40;99.90;;;;;;5033627;28;20242;-65
2021/06/30 02:50:28;;;;;;;1.07;0.97;;;15.30;99.90;;;;;;5016178;28;20495;-65
2021/06/30 02:52:54;;;;;;;0.50;0.50;;;15.30;99.90;;;;;;5034413;28;20435;-64
2021/06/30 02:55:21;;;;;;;0.70;0.70;;;15.30;99.90;;;;;;5016194;28;20519;-64
2021/06/30 02:57:48;;;;;;;0.70;0.70;;;15.30;99.90;;;;;;5033692;28;20256;-64
2021/06/30 03:00:20;;;;;;;0.80;0.80;;;15.30;99.90;;;;;;5033975;28;20530;-65
2021/06/30 03:02:46;;;;;;;0.60;0.60;;;15.40;99.90;;;;;;5033530;28;21005;-64
2021/06/30 03:05:13;;;;;;;2.73;0.70;;;15.30;99.90;;;;;;5034212;28;20478;-65
2021/06/30 03:07:38;;;;;;;0.60;0.60;;;15.30;99.90;;;;;;5034115;28;20438;-65
2021/06/30 03:10:06;;;;;;;0.60;0.60;;;15.30;99.90;;;;;;5033973;28;20467;-66
2021/06/30 03:12:33;;;;;;;1.50;0.80;;;15.30;99.90;;;;;;5033881;28;20195;-66
2021/06/30 03:14:58;;;;;;;0.53;0.50;;;15.20;99.90;;;;;;5033764;28;20425;-65
2021/06/30 03:17:24;;;;;;;0.70;0.70;;;15.20;99.90;;;;;;5033422;28;20949;-64
2021/06/30 03:19:50;;;;;;;0.73;0.73;;;15.20;99.90;;;;;;5033407;28;20653;-64
2021/06/30 03:22:15;;;;;;;0.60;0.60;;;15.20;99.90;;;;;;5033565;28;20201;-65
2021/06/30 03:24:41;;;;;;;0.40;0.40;;;15.10;99.90;;;;;;5033411;28;20177;-64
2021/06/30 03:27:07;;;;;;;0.63;0.53;;;15.10;99.90;;;;;;5032887;28;20177;-65
2021/06/30 03:29:32;;;;;;;0.63;0.63;;;15.10;99.90;;;;;;5033596;28;20248;-65
2021/06/30 03:31:58;;;;;;;0.53;0.53;;;15.10;99.90;;;;;;5032819;28;20181;-66
2021/06/30 03:34:24;;;;;;;0.50;0.50;;;15.10;99.90;;;;;;5033339;28;20189;-66
2021/06/30 03:36:49;;;;;;;0.47;0.47;;;15.10;99.90;;;;;;5033767;28;20636;-65
2021/06/30 03:39:16;;;;;;;0.60;0.60;;;15.10;99.90;;;;;;5032833;28;20201;-65
2021/06/30 03:41:41;;;;;;;1.13;0.70;;;15.00;99.90;;;;;;5032601;28;20277;-65
2021/06/30 03:44:07;;;;;;;0.40;0.40;;;15.00;99.90;;;;;;5033285;28;20448;-65
2021/06/30 03:46:33;;;;;;;0.60;0.60;;;15.00;99.90;;;;;;5033333;28;20174;-64
2021/06/30 03:48:58;;;;;;;0.80;0.80;;;15.00;99.90;;;;;;5032689;28;20284;-65
2021/06/30 03:51:24;;;;;;;0.50;0.50;;;15.00;99.90;;;;;;5015635;28;20181;-66
2021/06/30 03:53:50;;;;;;;0.60;0.60;;;15.00;99.90;;;;;;5032985;28;20162;-63
2021/06/30 03:56:16;;;;;;;0.60;0.60;;;15.00;99.90;;;;;;5033005;28;20181;-64
2021/06/30 03:58:41;;;;;;;6.30;0.90;;;15.10;99.90;;;;;;5032897;28;20193;-67
2021/06/30 04:01:07;;;;;;;0.60;0.60;;;15.10;99.90;;;;;;5033370;28;20170;-65
2021/06/30 04:03:32;;;;;;;0.57;0.57;;;15.10;99.90;;;;;;5033202;28;20288;-64
2021/06/30 04:05:58;;;;;;;0.50;0.50;;;15.20;99.90;;;;;;5033396;28;20189;-65
2021/06/30 04:08:24;;;;;;;0.53;0.53;;;15.20;99.90;;;;;;5032635;28;20177;-64
2021/06/30 04:10:50;;;;;;;0.40;0.40;;;15.20;99.90;;;;;;5033113;28;20178;-65
2021/06/30 04:13:16;;;;;;;0.50;0.47;;;15.20;99.90;;;;;;5033514;28;20885;-63
2021/06/30 04:15:44;;;;;;;0.50;0.50;;;15.20;99.90;;;;;;5037224;28;20199;-66
2021/06/30 04:18:10;;;;;;;0.60;0.60;;;15.20;99.90;;;;;;5035756;28;20391;-65
2021/06/30 04:20:35;;;;;;;1.77;0.70;;;15.20;99.90;;;;;;5036845;28;20459;-65
2021/06/30 04:23:01;;;;;;;0.47;0.47;;;15.20;99.90;;;;;;5036332;28;20459;-66
2021/06/30 04:25:27;;;;;;;0.70;0.70;;;15.30;99.90;;;;;;5036958;28;20193;-65
2021/06/30 04:27:53;;;;;;;0.60;0.60;;;15.30;99.90;;;;;;5018927;28;20178;-65
2021/06/30 04:30:19;;;;;;;0.67;0.63;;;15.30;99.90;;;;;;5036536;28;20451;-65
2021/06/30 04:32:46;;;;;;;10.77;0.90;;;15.30;99.90;;;;;;5036904;28;20783;-64
2021/06/30 04:35:12;;;;;;;1.43;1.00;;;15.30;99.90;;;;;;5036290;28;20435;-65
2021/06/30 04:37:37;;;;;;;0.50;0.50;;;15.30;99.90;;;;;;5036365;28;20443;-64
2021/06/30 04:40:04;;;;;;;0.77;0.63;;;15.30;99.90;;;;;;5036379;28;20216;-65
2021/06/30 04:42:30;;;;;;;0.63;0.63;;;15.30;99.90;;;;;;5036772;28;20588;-65
2021/06/30 04:44:56;;;;;;;0.73;0.73;;;15.30;99.90;;;;;;5036624;28;20433;-64
2021/06/30 04:47:21;;;;;;;0.60;0.60;;;15.30;99.90;;;;;;5035737;28;20423;-66
2021/06/30 04:49:47;;;;;;;0.60;0.50;;;15.20;99.90;;;;;;5036220;28;20192;-67
2021/06/30 04:52:13;;;;;;;1.27;1.20;;;15.20;99.90;;;;;;5036742;28;20219;-65
2021/06/30 04:54:38;;;;;;;1.90;1.80;;;15.30;99.90;;;;;;5036254;28;20181;-65
2021/06/30 04:57:04;;;;;;;0.80;0.80;;;15.30;99.90;;;;;;5036310;28;20184;-65
2021/06/30 04:59:29;;;;;;;1.20;1.10;;;15.30;99.90;;;;;;5035999;28;20275;-65
2021/06/30 05:01:55;;;;;;;2.90;0.70;;;15.40;99.90;;;;;;5036770;28;20202;-65
2021/06/30 05:04:21;;;;;;;0.80;0.80;;;15.50;99.90;;;;;;5036616;28;20166;-66
2021/06/30 05:06:47;;;;;;;0.80;0.80;;;15.60;99.90;;;;;;5034680;28;20181;-64
2021/06/30 05:09:13;;;;;;;0.70;0.70;;;15.60;99.90;;;;;;5035624;28;20436;-67
2021/06/30 05:11:39;;;;;;;0.90;0.90;;;15.70;99.90;;;;;;5036366;28;20185;-65
2021/06/30 05:14:05;;;;;;;1.00;0.90;;;15.90;99.90;;;;;;5036246;28;20780;-66
2021/06/30 05:16:30;;;;;;;0.70;0.40;;;16.00;99.90;;;;;;5036346;28;20888;-65
2021/06/30 05:18:56;;;;;;;1.60;0.53;;;16.10;99.90;;;;;;5017710;28;20309;-66
2021/06/30 05:21:22;;;;;;;0.50;0.50;;;16.20;99.90;;;;;;5035842;28;20536;-65
2021/06/30 05:23:48;;;;;;;0.50;0.50;;;16.40;99.90;;;;;;5035895;28;20178;-64
2021/06/30 05:26:14;;;;;;;1.37;0.77;;;16.40;99.90;;;;;;5035191;28;20401;-64
2021/06/30 05:28:40;;;;;;;0.63;0.63;;;16.50;99.90;;;;;;5035122;28;20490;-65
2021/06/30 05:31:06;;;;;;;0.60;0.60;;;16.60;99.90;;;;;;5035941;28;20170;-64
2021/06/30 05:33:32;;;;;;;3.23;1.70;;;16.60;99.90;;;;;;5035672;28;20171;-66
2021/06/30 05:35:57;;;;;;;0.73;0.73;;;16.60;99.90;;;;;;5035442;28;20407;-65
2021/06/30 05:38:24;;;;;;;0.60;0.60;;;16.60;99.90;;;;;;5034902;28;20403;-65
2021/06/30 05:40:50;;;;;;;1.03;0.43;;;16.60;99.90;;;;;;5035416;28;20535;-64
2021/06/30 05:43:16;;;;;;;0.40;0.40;;;16.70;99.90;;;;;;5034879;28;20447;-64
2021/06/30 05:45:42;;;;;;;0.60;0.50;;;16.80;99.90;;;;;;5035433;28;20386;-65
2021/06/30 05:48:08;;;;;;;0.40;0.40;;;16.90;99.90;;;;;;5035317;28;20868;-65
2021/06/30 05:50:34;;;;;;;0.47;0.47;;;17.00;99.90;;;;;;5035314;28;20412;-63
2021/06/30 05:53:00;;;;;;;2.93;2.00;;;17.10;99.90;;;;;;5035235;28;20953;-64
2021/06/30 05:55:26;;;;;;;2.07;1.20;;;17.20;99.90;;;;;;5035592;28;20505;-65
2021/06/30 05:57:52;;;;;;;0.50;0.50;;;17.30;99.90;;;;;;5034862;28;20853;-65
2021/06/30 06:00:22;;;;;;;0.40;0.40;;;17.50;99.90;;;;;;5034885;28;20444;-65
2021/06/30 06:02:49;;;;;;;0.80;0.77;;;17.60;99.90;;;;;;5035361;28;20554;-65
2021/06/30 06:05:15;;;;;;;2.10;0.60;;;17.70;99.90;;;;;;5035031;28;20409;-66
2021/06/30 06:07:41;;;;;;;0.70;0.70;;;17.70;99.90;;;;;;5035029;28;20803;-67
2021/06/30 06:10:08;;;;;;;0.60;0.47;;;17.80;99.90;;;;;;5035384;28;20434;-66
2021/06/30 06:12:34;;;;;;;0.60;0.60;;;17.90;99.90;;;;;;5035215;28;20180;-66
2021/06/30 06:15:00;;;;;;;2.30;1.93;;;17.90;99.90;;;;;;5034755;28;20481;-64
2021/06/30 06:17:26;;;;;;;0.90;0.90;;;17.90;99.90;;;;;;5034445;28;20402;-64
2021/06/30 06:19:52;;;;;;;0.50;0.50;;;18.00;99.90;;;;;;5034360;28;20447;-64
2021/06/30 06:22:18;;;;;;;0.50;0.50;;;18.00;99.90;;;;;;5033465;28;20209;-64
2021/06/30 06:24:43;;;;;;;0.90;0.70;;;18.10;99.90;;;;;;5033602;28;20207;-65
2021/06/30 06:27:09;;;;;;;0.40;0.40;;;18.10;99.90;;;;;;5033248;28;20416;-64
2021/06/30 06:29:35;;;;;;;0.90;0.80;;;18.10;99.90;;;;;;5033145;28;20216;-64
2021/06/30 06:32:01;;;;;;;1.00;1.00;;;18.10;99.90;;;;;;5033847;28;20380;-64
2021/06/30 06:34:28;;;;;;;0.47;0.47;;;18.10;99.90;;;;;;5033708;28;20417;-63
2021/06/30 06:36:54;;;;;;;0.50;0.50;;;18.20;99.90;;;;;;5033373;28;20451;-65
2021/06/30 06:39:20;;;;;;;0.60;0.60;;;18.30;99.90;;;;;;5034002;28;20451;-63
2021/06/30 06:41:47;;;;;;;0.60;0.60;;;18.30;99.90;;;;;;5034009;28;20568;-66
2021/06/30 06:44:13;;;;;;;0.50;0.50;;;18.40;99.90;;;;;;5034022;28;20429;-63
2021/06/30 06:46:39;;;;;;;0.67;0.67;;;18.50;99.90;;;;;;5034350;28;20415;-65
2021/06/30 06:49:09;;;;;;;0.53;0.53;;;18.60;99.90;;;;;;5033685;28;20201;-65
2021/06/30 06:51:36;;;;;;;0.60;0.60;;;18.80;99.90;;;;;;5034306;28;20425;-65
2021/06/30 06:54:03;;;;;;;0.60;0.60;;;19.00;99.90;;;;;;5033927;28;20409;-66
2021/06/30 06:56:29;;;;;;;0.60;0.60;;;19.20;99.90;;;;;;5016678;28;20437;-64
2021/06/30 06:59:04;;;;;;;0.73;0.73;;;19.40;99.90;;;;;;5069932;28;20563;-65
2021/06/30 07:01:30;;;;;;;0.60;0.60;;;19.70;99.90;;;;;;5070337;28;20488;-66
2021/06/30 07:03:55;;;;;;;0.97;0.60;;;20.00;99.90;;;;;;5070386;28;20185;-64
2021/06/30 07:06:21;;;;;;;1.63;1.43;;;20.30;99.90;;;;;;5070698;28;20268;-65
2021/06/30 07:08:47;;;;;;;0.60;0.60;;;20.70;99.90;;;;;;5068734;28;20201;-67
2021/06/30 07:11:12;;;;;;;0.60;0.60;;;21.00;99.90;;;;;;5070527;28;20179;-63
2021/06/30 07:13:39;;;;;;;0.53;0.53;;;21.40;99.90;;;;;;5070633;28;20650;-63
2021/06/30 07:16:06;;;;;;;0.80;0.80;;;21.60;99.90;;;;;;5070524;28;20202;-63
2021/06/30 07:18:32;;;;;;;2.00;1.77;;;21.70;99.90;;;;;;5070041;28;20469;-62
2021/06/30 07:20:58;;;;;;;1.97;1.23;;;21.70;99.90;;;;;;5070399;28;20433;-63
2021/06/30 07:23:24;;;;;;;0.60;0.60;;;21.70;99.90;;;;;;5051464;28;20424;-64
2021/06/30 07:25:52;;;;;;;0.97;0.93;;;21.40;99.90;;;;;;5050138;28;20200;-63
2021/06/30 07:28:17;;;;;;;1.00;1.00;;;21.30;99.90;;;;;;5049696;28;20174;-63
2021/06/30 07:30:43;;;;;;;0.73;0.50;;;21.60;99.90;;;;;;5049973;28;20419;-66
2021/06/30 07:33:09;;;;;;;0.40;0.40;;;22.20;99.90;;;;;;5049818;28;20169;-67
2021/06/30 07:35:35;;;;;;;0.90;0.40;;;22.90;99.90;;;;;;5049738;28;20231;-67
2021/06/30 07:38:00;;;;;;;0.70;0.70;;;23.20;99.90;;;;;;5065079;28;20677;-68
2021/06/30 07:40:26;;;;;;;0.67;0.43;;;23.80;99.90;;;;;;5069682;28;20279;-67
2021/06/30 07:42:52;;;;;;;0.73;0.73;;;24.80;97.80;;;;;;5069519;28;20636;-68
2021/06/30 07:45:18;;;;;;;1.13;0.43;;;25.50;95.60;;;;;;5062633;28;20814;-67
2021/06/30 07:47:44;;;;;;;1.03;0.90;;;25.60;94.70;;;;;;5049384;28;20186;-66
2021/06/30 07:50:10;;;;;;;0.40;0.40;;;25.90;92.60;;;;;;5049582;28;20433;-70
2021/06/30 07:52:36;;;;;;;0.40;0.40;;;26.20;93.60;;;;;;5049580;28;20246;-71
2021/06/30 07:55:03;;;;;;;0.57;0.57;;;26.90;93.20;;;;;;5064662;28;20486;-71
2021/06/30 07:57:28;;;;;;;0.73;0.73;;;27.80;92.10;;;;;;5063095;28;20579;-69
2021/06/30 07:59:54;;;;;;;1.00;0.60;;;28.60;92.40;;;;;;5049333;28;20531;-67
2021/06/30 08:02:19;;;;;;;0.60;0.60;;;29.20;90.20;;;;;;5049412;28;20257;-67
2021/06/30 08:04:45;;;;;;;9.50;8.10;;;29.70;88.70;;;;;;5049456;28;20170;-70
2021/06/30 08:07:11;;;;;;;0.60;0.60;;;29.80;86.60;;;;;;5048852;28;20721;-72
2021/06/30 08:09:37;;;;;;;0.60;0.60;;;29.50;84.60;;;;;;5050744;28;20254;-73
2021/06/30 08:12:08;;;;;;;1.67;1.57;;;29.20;82.50;;;;;;5044540;28;20178;-71
2021/06/30 08:14:34;;;;;;;0.50;0.50;;;28.60;81.70;;;;;;5044814;28;20894;-72
2021/06/30 08:17:01;;;;;;;0.67;0.67;;;27.90;83.10;;;;;;5046038;28;20494;-70
2021/06/30 08:19:26;;;;;;;0.50;0.50;;;27.60;84.80;;;;;;5044582;28;20442;-71
2021/06/30 08:21:52;;;;;;;0.50;0.50;;;27.40;85.50;;;;;;5039628;28;20500;-69
2021/06/30 08:24:17;;;;;;;0.40;0.40;;;27.30;86.70;;;;;;5042054;28;20195;-72
2021/06/30 08:26:44;;;;;;;0.60;0.60;;;27.20;89.70;;;;;;5043870;28;20182;-71
2021/06/30 08:29:10;;;;;;;0.60;0.50;;;27.30;84.60;;;;;;5045110;28;20190;-71
2021/06/30 08:31:36;;;;;;;0.53;0.53;;;27.90;89.00;;;;;;5043147;28;20813;-69
2021/06/30 08:34:01;;;;;;;0.50;0.50;;;28.60;86.70;;;;;;5045795;28;20170;-70
2021/06/30 08:36:27;;;;;;;0.40;0.40;;;28.40;83.80;;;;;;5043781;28;20596;-72
2021/06/30 08:38:53;;;;;;;0.40;0.40;;;28.00;79.70;;;;;;5050777;28;20205;-70
2021/06/30 08:41:20;;;;;;;4.37;3.97;;;27.10;81.80;;;;;;5055267;28;20525;-69
2021/06/30 08:43:46;;;;;;;0.40;0.40;;;25.90;84.60;;;;;;5038450;28;20573;-67
2021/06/30 08:46:19;;;;;;;0.80;0.40;;;24.80;86.60;;;;;;5035482;28;20438;-66
2021/06/30 08:48:45;;;;;;;0.50;0.50;;;24.30;89.70;;;;;;5034951;28;20264;-66
2021/06/30 08:51:14;;;;;;;0.30;0.30;;;24.60;90.30;;;;;;5035186;28;20383;-67
2021/06/30 08:53:41;;;;;;;0.50;0.40;;;25.00;89.80;;;;;;5038068;28;20404;-70
2021/06/30 08:56:08;;;;;;;0.50;0.50;;;25.40;89.50;;;;;;5034855;28;20444;-68
2021/06/30 08:58:35;;;;;;;1.60;1.10;;;25.40;89.30;;;;;;5034650;28;20443;-67
2021/06/30 09:01:01;;;;;;;0.40;0.40;;;24.90;90.10;;;;;;5035086;28;20482;-66
2021/06/30 09:03:27;;;;;;;12.80;6.17;;;24.80;90.70;;;;;;5035096;28;20435;-67
2021/06/30 09:08:22;;;;;;;0.57;0.53;;;23.80;91.10;;;;;;5034431;28;20862;-69
2021/06/30 09:10:48;;;;;;;0.30;0.30;;;23.70;93.30;;;;;;5034959;28;20476;-70
2021/06/30 09:13:26;;;;;;;0.50;0.50;;;24.00;93.30;;;;;;5034438;28;20435;-69
2021/06/30 09:15:59;;;;;;;0.60;0.60;;;24.30;93.30;;;;;;5034623;28;20537;-69
2021/06/30 09:18:33;;;;;;;0.80;0.80;;;24.40;93.40;;;;;;5038918;28;20804;-69
2021/06/30 09:21:24;;;;;;;0.40;0.40;;;24.00;92.60;;;;;;5053106;28;20416;-70
2021/06/30 09:24:05;;;;;;;0.50;0.50;;;23.50;93.60;;;;;;5054017;28;20881;-69
2021/06/30 09:26:36;;;;;;;1.00;0.50;;;23.10;95.40;;;;;;5054013;28;20419;-69
2021/06/30 09:29:11;;;;;;;0.60;0.57;;;22.80;96.00;;;;;;5053766;28;21018;-69
2021/06/30 09:31:40;;;;;;;1.83;1.00;;;22.50;96.60;;;;;;5054579;28;20457;-68
2021/06/30 09:34:06;;;;;;;0.67;0.53;;;22.20;96.50;;;;;;5041111;28;20524;-68
2021/06/30 09:36:44;;;;;;;0.80;0.80;;;21.90;98.80;;;;;;5034068;28;20472;-68
2021/06/30 09:39:12;;;;;;;0.50;0.50;;;21.80;98.40;;;;;;5033893;28;20194;-68
2021/06/30 09:41:39;;;;;;;2.50;2.00;;;21.60;99.90;;;;;;5034462;28;20368;-69
2021/06/30 09:44:08;;;;;;;0.90;0.90;;;21.80;99.90;;;;;;5035359;28;20433;-69
2021/06/30 09:46:36;;;;;;;0.60;0.50;;;22.20;97.20;;;;;;5034570;28;20749;-69
2021/06/30 09:49:09;;;;;;;0.73;0.73;;;22.70;96.30;;;;;;5047828;28;20987;-68
2021/06/30 09:51:36;;;;;;;1.07;0.90;;;22.80;96.20;;;;;;5054327;28;20912;-69
2021/06/30 09:54:04;;;;;;;0.70;0.70;;;22.80;95.80;;;;;;5054317;28;20400;-68
2021/06/30 09:56:33;;;;;;;0.50;0.50;;;22.80;95.00;;;;;;5047278;28;20768;-68
2021/06/30 09:59:14;;;;;;;0.60;0.60;;;23.00;95.40;;;;;;5030551;28;20827;-69
2021/06/30 10:01:51;;;;;;;0.70;0.40;;;23.40;96.20;;;;;;5034060;28;20441;-69
2021/06/30 10:04:30;;;;;;;0.40;0.40;;;24.10;95.30;;;;;;5034021;28;20803;-69
2021/06/30 10:06:58;;;;;;;0.77;0.60;;;25.10;93.60;;;;;;5033679;28;20913;-69
2021/06/30 10:09:25;;;;;;;0.70;0.70;;;25.40;92.00;;;;;;5033185;28;20421;-69
2021/06/30 10:12:07;;;;;;;0.47;0.47;;;25.30;92.70;;;;;;5044662;28;20885;-69
2021/06/30 10:14:34;;;;;;;1.00;0.57;;;24.90;92.50;;;;;;5040824;28;20472;-68
2021/06/30 10:17:00;;;;;;;0.80;0.60;;;24.10;94.80;;;;;;5033769;28;20424;-69
2021/06/30 10:19:27;;;;;;;0.60;0.60;;;23.00;96.70;;;;;;5032349;28;20952;-68
2021/06/30 10:21:53;;;;;;;0.63;0.63;;;21.80;97.60;;;;;;5033885;28;20374;-69
2021/06/30 10:24:20;;;;;;;0.83;0.50;;;20.90;99.90;;;;;;5032289;28;20387;-70
2021/06/30 10:26:46;;;;;;;0.50;0.50;;;20.30;99.90;;;;;;5033460;28;20187;-69
2021/06/30 10:29:13;;;;;;;0.50;0.50;;;20.30;99.90;;;;;;5033200;28;20425;-70
2021/06/30 10:31:41;;;;;;;0.90;0.90;;;21.00;99.90;;;;;;5033377;28;20379;-70
2021/06/30 10:34:12;;;;;;;0.70;0.70;;;22.10;99.90;;;;;;5033576;28;20935;-70
2021/06/30 10:36:56;;;;;;;0.40;0.40;;;23.30;99.90;;;;;;5032338;28;20422;-69
2021/06/30 10:39:40;;;;;;;0.40;0.40;;;24.40;99.90;;;;;;5031641;28;20770;-69
2021/06/30 10:42:22;;;;;;;0.50;0.50;;;25.30;99.90;;;;;;5050490;28;20420;-69
2021/06/30 10:44:57;;;;;;;0.60;0.60;;;25.70;97.50;;;;;;5053257;28;20415;-69
2021/06/30 10:47:29;;;;;;;0.77;0.77;;;25.90;96.70;;;;;;5051499;28;20416;-69
2021/06/30 10:50:22;;;;;;;21.30;11.47;;;25.70;97.10;;;;;;5052455;28;20421;-68
2021/06/30 10:53:03;;;;;;;0.70;0.70;;;25.50;99.00;;;;;;5053212;28;20370;-67
2021/06/30 11:00:49;;;;;;;0.60;0.60;;;25.20;98.80;;;;;;5053093;28;20416;-68
2021/06/30 11:03:29;;;;;;;0.50;0.50;;;25.10;98.40;;;;;;5051464;28;20468;-68
2021/06/30 11:06:18;;;;;;;1.90;0.60;;;25.10;97.00;;;;;;5031615;28;20764;-68
2021/06/30 11:09:23;;;;;;;0.63;0.63;;;25.10;97.10;;;;;;5031808;28;20418;-68
2021/06/30 11:11:52;;;;;;;0.60;0.60;;;25.10;97.90;;;;;;5032581;28;20431;-70
2021/06/30 11:14:19;;;;;;;0.50;0.50;;;24.70;97.70;;;;;;5033160;28;20409;-69
2021/06/30 11:16:54;;;;;;;1.47;0.73;;;24.40;98.40;;;;;;5032821;28;20806;-67
2021/06/30 11:19:20;;;;;;;0.53;0.53;;;23.80;98.40;;;;;;5032677;28;20395;-68
2021/06/30 11:22:07;;;;;;;1.17;0.70;;;23.30;98.20;;;;;;5033158;28;20380;-68
2021/06/30 11:24:36;;;;;;;0.70;0.60;;;22.70;98.50;;;;;;5033557;28;20390;-67
2021/06/30 11:27:19;;;;;;;0.93;0.57;;;22.20;99.80;;;;;;5036234;28;20434;-67
2021/06/30 11:29:46;;;;;;;0.47;0.47;;;21.50;99.90;;;;;;5052946;28;20471;-68
2021/06/30 11:32:30;;;;;;;0.50;0.50;;;21.00;99.90;;;;;;5052716;28;20497;-68
2021/06/30 11:34:57;;;;;;;0.50;0.50;;;20.70;99.90;;;;;;5052642;28;20410;-68
2021/06/30 11:37:23;;;;;;;0.70;0.70;;;20.70;99.90;;;;;;5052431;28;20430;-68
2021/06/30 11:39:54;;;;;;;0.37;0.37;;;20.90;99.90;;;;;;5052829;28;20430;-67
2021/06/30 11:42:41;;;;;;;0.87;0.60;;;21.20;99.90;;;;;;5042127;28;20425;-68
2021/06/30 11:45:25;;;;;;;0.60;0.60;;;21.40;99.90;;;;;;5035994;28;20805;-68
2021/06/30 11:47:53;;;;;;;0.63;0.63;;;21.50;99.90;;;;;;5034825;28;20904;-67
2021/06/30 11:50:21;;;;;;;0.60;0.60;;;21.70;99.90;;;;;;5042522;28;20416;-68
2021/06/30 11:52:48;;;;;;;0.90;0.90;;;21.70;99.90;;;;;;5056989;28;20801;-68
2021/06/30 11:55:14;;;;;;;1.60;0.60;;;21.70;99.90;;;;;;5057197;28;20417;-67
2021/06/30 11:57:57;;;;;;;1.07;1.07;;;21.50;99.90;;;;;;5056142;28;20830;-68
2021/06/30 12:00:24;;;;;;;0.60;0.60;;;21.40;99.90;;;;;;5056512;28;20441;-68
2021/06/30 12:02:56;;;;;;;0.77;0.77;;;21.40;99.90;;;;;;5056148;28;20389;-68
2021/06/30 12:05:24;;;;;;;0.60;0.60;;;21.30;99.90;;;;;;5055572;28;20487;-68
2021/06/30 12:07:54;;;;;;;0.50;0.50;;;21.30;99.90;;;;;;5054117;28;21046;-68
2021/06/30 12:10:20;;;;;;;2.70;0.70;;;21.10;99.90;;;;;;5035016;28;20899;-69
2021/06/30 12:12:47;;;;;;;0.97;0.70;;;21.00;99.90;;;;;;5036247;28;20768;-68
2021/06/30 12:15:12;;;;;;;0.80;0.80;;;20.80;99.90;;;;;;5036049;28;20756;-69
2021/06/30 12:17:51;;;;;;;1.00;0.80;;;20.40;99.90;;;;;;5035931;28;20587;-68
2021/06/30 12:20:18;;;;;;;0.67;0.67;;;20.00;99.90;;;;;;5054488;28;20190;-68
2021/06/30 12:22:45;;;;;;;1.53;0.97;;;19.30;99.90;;;;;;5056201;28;20407;-69
2021/06/30 12:25:18;;;;;;;0.80;0.67;;;18.80;99.90;;;;;;5037297;28;20893;-67
2021/06/30 12:27:52;;;;;;;1.53;1.43;;;18.50;99.90;;;;;;5035950;28;20493;-69
2021/06/30 12:30:20;;;;;;;2.53;2.07;;;18.20;99.90;;;;;;5036738;28;20451;-69
2021/06/30 12:32:52;;;;;;;0.63;0.50;;;18.20;99.90;;;;;;5047242;28;20465;-69
2021/06/30 12:35:33;;;;;;;2.20;2.03;;;18.30;99.90;;;;;;5056203;28;20412;-69
2021/06/30 12:38:09;;;;;;;1.10;1.00;;;18.50;99.90;;;;;;5055724;28;20426;-69
2021/06/30 12:40:35;;;;;;;1.23;0.97;;;19.00;99.90;;;;;;5055632;28;20409;-68
2021/06/30 12:43:03;;;;;;;0.60;0.40;;;19.50;99.90;;;;;;5057038;28;20412;-69
2021/06/30 12:45:40;;;;;;;0.53;0.53;;;20.00;99.90;;;;;;5055923;28;20902;-69
2021/06/30 12:48:07;;;;;;;0.40;0.40;;;20.50;99.90;;;;;;5054017;28;20880;-69
2021/06/30 12:50:44;;;;;;;1.50;0.50;;;20.90;99.90;;;;;;5055660;28;20428;-69
2021/06/30 12:53:12;;;;;;;1.13;0.50;;;21.00;99.90;;;;;;5055531;28;20420;-67
2021/06/30 12:56:02;;;;;;;0.60;0.60;;;21.00;99.90;;;;;;5035552;28;20773;-68
2021/06/30 12:58:46;;;;;;;0.77;0.73;;;20.70;99.90;;;;;;5034760;28;20818;-68